Time;durP1;ratioP1;P1;durP2;ratioP2;P2;SDS_P1;SDS_P2;PMS_P1;PMS_P2;Temp;Humidity;BMP_temperature;BMP_pressure;BME280_temperature;BME280_humidity;BME280_pressure;Samples;Min_cycle;Max_cycle;Signal;HPM_P1;HPM_P2
2023/06/07 00:01:14;;;;;;;;;12.00;11.00;;;;;23.86;33.62;101146.72;4960839;28;45303;-57
2023/06/07 00:03:40;;;;;;;;;18.75;15.25;;;;;23.82;33.83;101145.19;4960749;28;45422;-57
2023/06/07 00:06:08;;;;;;;;;13.50;12.75;;;;;23.81;33.71;101151.50;4959489;28;45382;-57
2023/06/07 00:08:34;;;;;;;;;16.50;14.50;;;;;23.80;33.98;101149.78;4960480;28;45369;-57
2023/06/07 00:10:59;;;;;;;;;16.25;15.00;;;;;23.77;33.92;101150.00;4960634;28;45291;-57
2023/06/07 00:13:24;;;;;;;;;16.00;14.25;;;;;23.73;34.33;101147.59;4960552;28;45459;-57
2023/06/07 00:15:50;;;;;;;;;17.75;15.00;;;;;23.69;33.92;101147.75;4962448;28;45338;-57
2023/06/07 00:18:16;;;;;;;;;16.50;13.75;;;;;23.67;34.19;101155.06;4964082;28;45340;-57
2023/06/07 00:20:49;;;;;;;;;16.50;15.25;;;;;23.65;34.23;101148.94;4977850;28;45373;-57
2023/06/07 00:23:18;;;;;;;;;15.75;14.75;;;;;23.60;34.35;101153.72;4963871;28;45385;-57
2023/06/07 00:25:44;;;;;;;;;15.00;13.00;;;;;23.58;34.33;101150.25;4963690;28;46570;-57
2023/06/07 00:28:09;;;;;;;;;16.25;13.75;;;;;23.53;34.34;101150.56;4963827;28;45446;-57
2023/06/07 00:30:35;;;;;;;;;14.00;14.00;;;;;23.50;34.43;101150.75;4983035;28;45235;-57
2023/06/07 00:33:00;;;;;;;;;17.00;14.25;;;;;23.48;34.75;101149.13;4963460;28;55500;-57
2023/06/07 00:35:25;;;;;;;;;16.00;15.25;;;;;23.45;34.89;101143.97;4962336;28;46007;-57
2023/06/07 00:37:51;;;;;;;;;15.75;13.50;;;;;23.42;34.78;101146.81;4978560;28;45346;-57
2023/06/07 00:40:16;;;;;;;;;14.50;13.75;;;;;23.37;34.85;101136.41;4963701;28;45479;-57
2023/06/07 00:42:42;;;;;;;;;16.00;14.25;;;;;23.35;34.87;101144.50;4963879;28;45450;-57
2023/06/07 00:45:08;;;;;;;;;16.75;15.25;;;;;23.32;34.50;101144.72;4978478;28;47543;-57
2023/06/07 00:47:36;;;;;;;;;17.25;14.50;;;;;23.29;34.99;101150.25;4963761;28;45782;-57
2023/06/07 00:50:03;;;;;;;;;17.25;15.00;;;;;23.25;35.20;101143.38;4963686;28;45338;-57
2023/06/07 00:52:28;;;;;;;;;17.50;12.50;;;;;23.25;35.13;101142.50;4963488;28;45332;-57
2023/06/07 00:54:54;;;;;;;;;17.00;15.50;;;;;23.20;35.25;101140.94;4963112;28;46076;-57
2023/06/07 00:57:20;;;;;;;;;15.50;13.25;;;;;23.21;35.46;101139.16;4963441;28;45318;-57
2023/06/07 00:59:45;;;;;;;;;17.75;14.75;;;;;23.16;35.56;101127.84;4963570;28;45260;-57
2023/06/07 01:02:14;;;;;;;;;15.75;15.25;;;;;23.14;35.13;101135.94;4963514;28;45397;-57
2023/06/07 01:04:40;;;;;;;;;18.75;14.50;;;;;23.10;35.44;101150.50;4963245;28;46293;-57
2023/06/07 01:07:07;;;;;;;;;14.75;12.50;;;;;23.08;35.59;101135.44;4962133;28;45359;-57
2023/06/07 01:09:34;;;;;;;;;16.50;14.00;;;;;23.03;35.81;101131.25;4961856;28;45434;-57
2023/06/07 01:12:01;;;;;;;;;12.25;11.50;;;;;22.97;35.64;101123.56;4963199;28;45443;-57
2023/06/07 01:14:27;;;;;;;;;18.00;13.50;;;;;22.95;35.81;101136.19;4945590;28;48107;-57
2023/06/07 01:16:53;;;;;;;;;14.75;13.50;;;;;22.94;35.61;101128.25;4962852;28;45278;-57
2023/06/07 01:19:25;;;;;;;;;17.50;13.50;;;;;22.89;35.86;101128.53;4970392;28;45471;-57
2023/06/07 01:21:54;;;;;;;;;17.25;15.00;;;;;22.85;35.80;101129.66;4968602;28;45251;-57
2023/06/07 01:24:20;;;;;;;;;15.25;13.00;;;;;22.81;35.57;101134.34;4961638;28;46122;-57
2023/06/07 01:26:47;;;;;;;;;16.00;14.25;;;;;22.79;35.98;101130.03;4961565;28;45308;-57
2023/06/07 01:29:15;;;;;;;;;15.75;14.00;;;;;22.76;36.13;101130.22;4985958;28;45328;-57
2023/06/07 01:31:42;;;;;;;;;18.25;12.25;;;;;22.73;36.08;101137.47;4972548;28;45239;-57
2023/06/07 01:34:09;;;;;;;;;15.75;14.00;;;;;22.71;36.15;101139.38;4962678;28;45334;-57
2023/06/07 01:36:34;;;;;;;;;18.00;14.50;;;;;22.68;36.04;101131.53;4962498;28;45252;-57
2023/06/07 01:39:02;;;;;;;;;17.25;14.75;;;;;22.54;36.11;101110.03;4962894;28;45374;-57
2023/06/07 01:41:28;;;;;;;;;15.25;13.75;;;;;22.61;36.25;101132.00;4962644;28;45341;-57
2023/06/07 01:43:55;;;;;;;;;22.25;16.50;;;;;22.58;36.46;101122.31;4962926;28;45411;-56
2023/06/07 01:46:21;;;;;;;;;16.00;12.00;;;;;22.58;36.58;101127.69;4962715;28;45445;-57
2023/06/07 01:48:46;;;;;;;;;21.00;15.50;;;;;22.56;36.34;101129.56;4961518;28;45349;-57
2023/06/07 01:51:12;;;;;;;;;18.75;16.00;;;;;22.54;36.54;101126.13;4962656;28;45373;-57
2023/06/07 01:53:38;;;;;;;;;19.50;16.75;;;;;22.51;36.57;101123.63;4962587;28;45440;-57
2023/06/07 01:56:11;;;;;;;;;15.50;13.50;;;;;22.49;36.34;101128.19;4962308;28;45222;-57
2023/06/07 01:58:53;;;;;;;;;16.50;15.50;;;;;22.45;36.57;101127.53;4962747;28;45525;-57
2023/06/07 02:01:25;;;;;;;;;17.25;15.25;;;;;22.43;36.35;101117.84;4961144;28;45331;-57
2023/06/07 02:03:53;;;;;;;;;18.50;16.50;;;;;22.39;36.56;101117.19;4962217;28;46324;-57
2023/06/07 02:06:30;;;;;;;;;20.00;18.50;;;;;22.37;36.32;101119.09;4962317;28;45284;-57
2023/06/07 02:09:00;;;;;;;;;19.00;16.00;;;;;22.32;36.59;101108.59;4962056;28;45331;-57
2023/06/07 02:11:27;;;;;;;;;18.75;17.25;;;;;22.30;36.82;101106.97;4962321;28;45350;-57
2023/06/07 02:13:53;;;;;;;;;17.75;15.50;;;;;22.26;37.18;101111.63;4962123;28;45458;-57
2023/06/07 02:16:36;;;;;;;;;22.50;16.75;;;;;22.18;37.03;101106.72;4962032;28;45302;-57
2023/06/07 02:19:09;;;;;;;;;18.50;15.50;;;;;22.14;37.02;101113.22;4967255;28;45279;-57
2023/06/07 02:21:35;;;;;;;;;21.25;16.75;;;;;22.11;36.94;101112.50;4969651;28;45504;-57
2023/06/07 02:24:01;;;;;;;;;18.75;15.75;;;;;22.08;37.06;101114.41;4960785;28;45461;-57
2023/06/07 02:26:27;;;;;;;;;18.25;17.00;;;;;22.05;37.07;101109.25;4961851;28;45278;-57
2023/06/07 02:28:52;;;;;;;;;18.25;13.75;;;;;22.02;36.76;101108.53;4964501;28;45364;-57
2023/06/07 02:31:20;;;;;;;;;17.50;16.25;;;;;21.98;37.11;101105.19;4976158;28;45329;-57
2023/06/07 02:33:46;;;;;;;;;27.50;20.50;;;;;21.97;37.55;101106.13;4961920;28;46854;-59
2023/06/07 02:36:12;;;;;;;;;20.50;15.50;;;;;21.93;37.37;101096.56;4976409;28;45382;-57
2023/06/07 02:38:38;;;;;;;;;21.25;15.75;;;;;21.89;37.56;101101.22;4961435;28;45228;-57
2023/06/07 02:41:03;;;;;;;;;19.50;17.00;;;;;21.86;37.21;101100.50;4961791;28;45188;-57
2023/06/07 02:43:29;;;;;;;;;18.75;16.50;;;;;21.83;37.47;101108.72;4961682;28;47498;-57
2023/06/07 02:45:54;;;;;;;;;14.25;11.75;;;;;21.77;37.23;101103.72;4962101;28;45180;-57
2023/06/07 02:48:20;;;;;;;;;22.00;17.75;;;;;21.75;37.48;101112.69;4961897;28;45215;-57
2023/06/07 02:50:46;;;;;;;;;21.75;17.00;;;;;21.72;37.06;101103.97;4961902;28;45418;-57
2023/06/07 02:53:11;;;;;;;;;19.00;15.75;;;;;21.67;37.26;101101.56;4961410;28;45301;-57
2023/06/07 02:55:37;;;;;;;;;25.75;19.25;;;;;21.64;37.26;101099.03;4961532;28;45262;-57
2023/06/07 02:58:02;;;;;;;;;16.50;15.75;;;;;21.61;37.81;101101.91;4961719;28;45421;-60
2023/06/07 03:00:27;;;;;;;;;22.50;18.00;;;;;21.54;37.91;101093.28;4962017;28;45332;-57
2023/06/07 03:02:53;;;;;;;;;21.00;18.75;;;;;21.56;37.67;101103.97;4961537;28;45247;-57
2023/06/07 03:05:18;;;;;;;;;17.25;17.25;;;;;21.53;37.39;101099.59;4961556;28;45355;-57
2023/06/07 03:07:45;;;;;;;;;18.50;17.00;;;;;21.50;37.88;101107.78;4961523;28;45326;-57
2023/06/07 03:10:12;;;;;;;;;19.75;19.50;;;;;21.47;37.49;101096.41;4961500;28;45505;-57
2023/06/07 03:12:37;;;;;;;;;23.00;18.75;;;;;21.41;37.75;101098.47;4961475;28;46983;-57
2023/06/07 03:15:03;;;;;;;;;16.75;15.25;;;;;21.40;37.73;101099.41;4961280;28;45216;-57
2023/06/07 03:17:29;;;;;;;;;25.25;21.25;;;;;21.38;37.61;101103.97;4961225;28;45639;-57
2023/06/07 03:19:55;;;;;;;;;19.25;19.25;;;;;21.35;38.22;101096.13;4973791;28;45283;-57
2023/06/07 03:22:21;;;;;;;;;20.75;18.50;;;;;21.32;38.14;101107.00;4960996;28;46934;-57
2023/06/07 03:24:47;;;;;;;;;23.75;17.25;;;;;21.29;38.11;101101.78;4976169;28;45461;-57
2023/06/07 03:27:13;;;;;;;;;19.00;18.50;;;;;21.22;37.75;101101.25;4961190;28;45334;-57
2023/06/07 03:29:38;;;;;;;;;21.75;20.75;;;;;21.22;38.22;101097.72;4975901;28;45243;-57
2023/06/07 03:32:05;;;;;;;;;26.25;20.75;;;;;21.19;38.31;101097.88;4963300;28;45506;-57
2023/06/07 03:34:32;;;;;;;;;24.50;21.50;;;;;21.17;38.34;101089.97;4976305;28;45200;-57
2023/06/07 03:36:58;;;;;;;;;19.00;17.75;;;;;21.14;38.09;101107.97;4961126;28;45229;-57
2023/06/07 03:39:23;;;;;;;;;21.75;21.00;;;;;21.12;37.98;101094.69;4961126;28;45244;-57
2023/06/07 03:41:48;;;;;;;;;18.50;18.50;;;;;21.09;38.25;101093.03;4961004;28;46211;-57
2023/06/07 03:44:14;;;;;;;;;21.00;16.75;;;;;21.07;38.34;101096.75;4961210;28;45378;-57
2023/06/07 03:46:40;;;;;;;;;19.25;18.00;;;;;21.02;38.46;101105.00;4961178;28;45292;-57
2023/06/07 03:49:05;;;;;;;;;21.25;16.50;;;;;21.02;38.18;101102.31;4960373;28;45425;-57
2023/06/07 03:51:33;;;;;;;;;22.50;18.75;;;;;21.00;38.51;101103.34;4960540;28;45973;-57
2023/06/07 03:53:59;;;;;;;;;19.50;18.75;;;;;20.95;38.35;101090.22;4975861;28;45351;-57
2023/06/07 03:56:25;;;;;;;;;20.75;18.50;;;;;20.94;38.70;101100.06;4960692;28;45325;-57
2023/06/07 03:58:53;;;;;;;;;21.50;18.25;;;;;20.90;38.48;101093.13;4960890;28;45648;-57
2023/06/07 04:01:18;;;;;;;;;26.50;20.00;;;;;20.82;38.34;101090.00;4959734;28;46080;-57
2023/06/07 04:03:44;;;;;;;;;18.75;18.25;;;;;20.84;38.76;101104.16;4960822;28;45195;-57
2023/06/07 04:06:09;;;;;;;;;25.75;19.75;;;;;20.82;38.96;101100.69;4960907;28;45220;-57
2023/06/07 04:08:38;;;;;;;;;22.00;19.00;;;;;20.82;38.95;101105.13;4960641;28;45484;-57
2023/06/07 04:11:04;;;;;;;;;23.00;21.25;;;;;20.79;38.51;101111.50;4960714;28;47057;-57
2023/06/07 04:13:29;;;;;;;;;30.00;25.75;;;;;20.78;38.96;101110.66;4960629;28;45287;-57
2023/06/07 04:15:55;;;;;;;;;22.00;18.25;;;;;20.74;38.66;101114.44;4960541;28;45279;-57
2023/06/07 04:18:21;;;;;;;;;21.25;17.25;;;;;20.74;38.58;101111.75;4960506;28;45204;-57
2023/06/07 04:20:46;;;;;;;;;25.50;20.50;;;;;20.71;38.79;101116.38;4974077;28;45893;-57
2023/06/07 04:23:12;;;;;;;;;22.00;19.00;;;;;20.67;38.78;101112.13;4960465;28;45295;-57
2023/06/07 04:25:38;;;;;;;;;20.75;17.75;;;;;20.67;38.62;101112.13;4960079;28;49938;-57
2023/06/07 04:28:03;;;;;;;;;23.00;23.00;;;;;20.65;39.18;101112.19;4960595;28;45238;-57
2023/06/07 04:30:36;;;;;;;;;24.75;23.25;;;;;20.63;39.22;101112.25;4982006;28;47056;-57
2023/06/07 04:33:09;;;;;;;;;19.50;17.75;;;;;20.62;39.03;101109.69;4980074;28;45396;-57
2023/06/07 04:35:41;;;;;;;;;25.00;21.25;;;;;20.61;39.00;101115.97;4979973;28;45314;-57
2023/06/07 04:38:07;;;;;;;;;26.50;23.50;;;;;20.59;39.14;101109.81;4979274;28;45641;-57
2023/06/07 04:40:33;;;;;;;;;25.00;20.75;;;;;20.60;38.99;101114.22;4979705;28;45397;-57
2023/06/07 04:43:05;;;;;;;;;25.25;22.75;;;;;20.57;38.88;101120.59;4979818;28;45330;-57
2023/06/07 04:45:41;;;;;;;;;24.25;20.00;;;;;20.56;38.93;101124.19;4979911;28;45471;-57
2023/06/07 04:48:11;;;;;;;;;18.75;17.25;;;;;20.56;39.35;101123.34;4979718;28;45299;-57
2023/06/07 04:50:38;;;;;;;;;20.00;18.75;;;;;20.53;38.87;101127.03;4979776;28;45911;-57
2023/06/07 04:53:04;;;;;;;;;24.00;20.25;;;;;20.54;39.40;101125.19;4979408;28;45660;-57
2023/06/07 04:55:34;;;;;;;;;26.25;22.25;;;;;20.53;39.46;101136.84;4979705;28;45376;-57
2023/06/07 04:58:04;;;;;;;;;23.25;20.75;;;;;20.50;39.20;101132.50;4979639;28;45604;-57
2023/06/07 05:00:33;;;;;;;;;23.75;20.50;;;;;20.48;39.07;101137.06;4979719;28;45302;-57
2023/06/07 05:03:06;;;;;;;;;26.25;23.50;;;;;20.45;39.56;101131.88;4982810;28;45340;-57
2023/06/07 05:05:35;;;;;;;;;25.50;21.50;;;;;20.42;39.41;101130.22;4982857;28;45329;-57
2023/06/07 05:08:01;;;;;;;;;28.75;23.25;;;;;20.41;39.25;101132.97;4983054;28;45227;-57
2023/06/07 05:10:26;;;;;;;;;33.75;28.25;;;;;20.38;39.44;101125.97;4982441;28;46591;-57
2023/06/07 05:12:51;;;;;;;;;23.25;19.50;;;;;20.37;39.74;101126.91;4983151;28;45256;-57
2023/06/07 05:15:17;;;;;;;;;24.00;20.75;;;;;20.36;39.27;101125.19;4981462;28;45465;-57
2023/06/07 05:17:45;;;;;;;;;24.75;21.25;;;;;20.36;39.74;101135.00;4982611;28;51237;-57
2023/06/07 05:20:12;;;;;;;;;28.50;22.50;;;;;20.36;39.77;101129.66;4981752;28;46248;-57
2023/06/07 05:22:41;;;;;;;;;27.75;22.50;;;;;20.35;39.82;101134.16;4962865;28;45406;-57
2023/06/07 05:25:09;;;;;;;;;24.50;22.00;;;;;20.34;39.23;101129.75;4962918;28;45274;-57
2023/06/07 05:27:38;;;;;;;;;23.00;19.75;;;;;20.32;39.86;101128.94;4963298;28;45287;-57
2023/06/07 05:30:06;;;;;;;;;23.25;22.75;;;;;20.28;40.17;101128.22;4979969;28;46146;-57
2023/06/07 05:32:32;;;;;;;;;26.00;23.75;;;;;20.28;39.98;101130.03;4963024;28;45239;-57
2023/06/07 05:34:57;;;;;;;;;25.75;21.75;;;;;20.27;39.92;101129.16;4977817;28;45240;-57
2023/06/07 05:37:27;;;;;;;;;17.75;15.00;;;;;20.27;39.98;101130.97;4962616;28;45385;-57
2023/06/07 05:39:52;;;;;;;;;26.25;25.25;;;;;20.27;39.83;101122.97;4962608;28;45379;-57
2023/06/07 05:42:18;;;;;;;;;22.75;22.75;;;;;20.26;39.73;101118.56;4962932;28;45409;-57
2023/06/07 05:44:48;;;;;;;;;23.25;20.75;;;;;20.24;39.87;101120.47;4962751;28;45315;-57
2023/06/07 05:47:14;;;;;;;;;26.25;22.00;;;;;20.25;39.95;101124.84;4962841;28;45502;-57
2023/06/07 05:49:39;;;;;;;;;30.75;27.25;;;;;20.26;40.01;101123.91;4961402;28;45260;-57
2023/06/07 05:52:05;;;;;;;;;24.00;22.50;;;;;20.24;39.69;101118.66;4962710;28;45430;-57
2023/06/07 05:54:30;;;;;;;;;28.25;23.50;;;;;20.23;39.84;101116.91;4962743;28;45376;-57
2023/06/07 05:56:56;;;;;;;;;30.50;25.75;;;;;20.27;39.70;101122.97;4962554;28;45295;-57
2023/06/07 05:59:21;;;;;;;;;31.25;27.25;;;;;20.26;40.03;101121.25;4962461;28;46149;-57
2023/06/07 06:01:46;;;;;;;;;26.00;22.50;;;;;20.28;40.03;101128.22;4962654;28;45262;-57
2023/06/07 06:04:12;;;;;;;;;27.00;23.50;;;;;20.29;40.50;101131.78;4962607;28;45494;-57
2023/06/07 06:06:38;;;;;;;;;25.75;23.00;;;;;20.32;40.38;101125.41;4962493;28;45326;-57
2023/06/07 06:09:04;;;;;;;;;26.75;25.00;;;;;20.33;40.09;101136.00;4960753;28;48176;-57
2023/06/07 06:11:30;;;;;;;;;25.00;23.25;;;;;20.35;40.30;101133.25;4977273;28;45417;-59
2023/06/07 06:13:56;;;;;;;;;30.50;27.50;;;;;20.36;40.16;101130.50;4961602;28;45230;-57
2023/06/07 06:16:21;;;;;;;;;24.00;22.50;;;;;20.38;40.10;101133.13;4962005;28;45365;-57
2023/06/07 06:18:47;;;;;;;;;22.25;19.00;;;;;20.37;40.39;101131.41;4965109;28;46094;-57
2023/06/07 06:21:12;;;;;;;;;25.50;23.50;;;;;20.39;40.25;101138.38;4971649;28;45332;-57
2023/06/07 06:23:38;;;;;;;;;25.25;22.75;;;;;20.39;40.76;101141.06;4977020;28;45251;-57
2023/06/07 06:26:04;;;;;;;;;23.25;20.25;;;;;20.42;40.64;101146.22;4962148;28;45469;-57
2023/06/07 06:28:29;;;;;;;;;28.75;25.50;;;;;20.43;40.29;101139.97;4962013;28;45940;-57
2023/06/07 06:30:55;;;;;;;;;23.25;20.25;;;;;20.45;40.58;101135.41;4979567;28;45337;-57
2023/06/07 06:33:20;;;;;;;;;30.25;28.00;;;;;20.43;40.56;101137.28;4962081;28;45374;-57
2023/06/07 06:35:47;;;;;;;;;24.25;23.00;;;;;20.49;40.54;101146.81;4960718;28;45519;-57
2023/06/07 06:38:13;;;;;;;;;25.25;23.00;;;;;20.46;40.48;101136.25;4961461;28;45414;-57
2023/06/07 06:40:39;;;;;;;;;32.25;23.25;;;;;20.54;40.26;101147.44;4944392;28;45447;-57
2023/06/07 06:43:04;;;;;;;;;27.25;22.25;;;;;20.54;40.32;101141.22;4976802;28;45336;-57
2023/06/07 06:45:29;;;;;;;;;22.75;22.25;;;;;20.59;40.69;101147.19;4962067;28;45495;-57
2023/06/07 06:47:55;;;;;;;;;23.50;21.75;;;;;20.63;40.77;101135.44;4961753;28;45299;-57
2023/06/07 06:50:20;;;;;;;;;24.00;20.00;;;;;20.66;40.87;101137.09;4961835;28;45221;-57
2023/06/07 06:52:45;;;;;;;;;21.75;20.50;;;;;20.66;40.55;101143.28;4961591;28;45453;-57
2023/06/07 06:55:11;;;;;;;;;23.75;22.25;;;;;20.68;40.50;101152.09;4961636;28;45390;-57
2023/06/07 06:57:36;;;;;;;;;30.50;24.25;;;;;20.70;40.96;101157.34;4961340;28;46029;-57
2023/06/07 07:00:05;;;;;;;;;19.25;18.75;;;;;20.72;41.09;101161.69;4961692;28;45267;-58
2023/06/07 07:02:30;;;;;;;;;30.25;25.50;;;;;20.74;40.80;101157.16;4961630;28;45347;-57
2023/06/07 07:04:57;;;;;;;;;27.75;24.25;;;;;20.55;41.24;101121.59;4960270;28;45258;-57
2023/06/07 07:07:23;;;;;;;;;27.75;24.25;;;;;20.78;41.30;101157.88;4961164;28;46478;-57
2023/06/07 07:09:49;;;;;;;;;27.25;25.25;;;;;20.76;41.07;101152.59;4976525;28;45357;-57
2023/06/07 07:12:15;;;;;;;;;22.00;18.25;;;;;20.82;40.98;101156.75;4961670;28;45338;-58
2023/06/07 07:14:40;;;;;;;;;24.75;22.50;;;;;20.86;40.82;101161.00;4961523;28;45306;-58
2023/06/07 07:17:05;;;;;;;;;27.75;23.75;;;;;20.88;40.73;101155.56;4961050;28;46231;-57
2023/06/07 07:19:31;;;;;;;;;25.50;25.50;;;;;20.90;41.12;101162.56;4970393;28;45215;-58
2023/06/07 07:21:56;;;;;;;;;28.50;27.50;;;;;20.92;40.81;101158.00;4966164;28;45217;-57
2023/06/07 07:24:21;;;;;;;;;25.00;24.75;;;;;20.92;41.28;101155.34;4976232;28;45617;-57
2023/06/07 07:26:47;;;;;;;;;49.25;40.25;;;;;21.00;41.12;101162.13;4960877;28;45243;-57
2023/06/07 07:29:12;;;;;;;;;37.50;31.00;;;;;21.02;41.30;101161.09;4968947;28;45191;-57
2023/06/07 07:31:38;;;;;;;;;23.50;21.75;;;;;21.05;40.86;101160.91;4971178;28;45174;-57
2023/06/07 07:34:04;;;;;;;;;26.25;25.75;;;;;21.08;40.83;101163.44;4961332;28;45309;-56
2023/06/07 07:36:33;;;;;;;;;27.75;25.00;;;;;21.11;41.00;101154.41;4960751;28;46962;-57
2023/06/07 07:39:04;;;;;;;;;23.75;21.00;;;;;21.15;41.14;101155.13;4960971;28;45398;-57
2023/06/07 07:41:30;;;;;;;;;21.25;19.25;;;;;21.16;41.39;101152.34;4961083;28;45619;-57
2023/06/07 07:43:55;;;;;;;;;26.75;21.50;;;;;21.22;40.87;101153.81;4961126;28;45616;-58
2023/06/07 07:46:20;;;;;;;;;26.25;24.00;;;;;21.26;41.13;101158.09;4960727;28;51355;-57
2023/06/07 07:48:46;;;;;;;;;25.25;23.75;;;;;21.30;41.39;101161.47;4961141;28;45301;-58
2023/06/07 07:51:11;;;;;;;;;24.25;21.75;;;;;21.35;41.31;101159.41;4961018;28;45362;-57
2023/06/07 07:53:36;;;;;;;;;21.75;21.75;;;;;21.39;41.34;101159.16;4960636;28;50171;-57
2023/06/07 07:56:02;;;;;;;;;24.25;22.00;;;;;21.42;41.42;101156.31;4959391;28;53141;-57
2023/06/07 07:58:27;;;;;;;;;26.75;22.75;;;;;21.50;40.89;101158.59;4960993;28;45315;-57
2023/06/07 08:00:52;;;;;;;;;22.00;19.75;;;;;21.54;41.17;101145.91;4960923;28;45287;-57
2023/06/07 08:03:18;;;;;;;;;23.25;21.25;;;;;21.61;40.96;101146.47;4960992;28;45302;-57
2023/06/07 08:05:43;;;;;;;;;23.00;21.25;;;;;21.68;41.22;101146.06;4960665;28;46321;-57
2023/06/07 08:08:08;;;;;;;;;20.25;19.75;;;;;21.74;41.23;101143.03;4960753;28;45419;-57
2023/06/07 08:10:34;;;;;;;;;24.00;19.75;;;;;21.80;41.35;101143.66;4960622;28;45389;-57
2023/06/07 08:13:00;;;;;;;;;23.25;22.25;;;;;21.89;40.89;101140.47;4960906;28;45323;-57
2023/06/07 08:15:25;;;;;;;;;24.00;21.50;;;;;21.95;41.30;101148.16;4960347;28;46229;-57
2023/06/07 08:17:50;;;;;;;;;20.25;16.75;;;;;22.02;40.74;101151.34;4960780;28;45299;-57
2023/06/07 08:20:16;;;;;;;;;23.75;22.50;;;;;22.08;40.93;101143.84;4974330;28;45302;-58
2023/06/07 08:22:42;;;;;;;;;22.50;22.50;;;;;22.15;40.97;101148.84;4960673;28;45148;-57
2023/06/07 08:25:09;;;;;;;;;21.75;20.75;;;;;22.22;41.35;101158.25;4960326;28;46187;-57
2023/06/07 08:27:34;;;;;;;;;27.75;23.00;;;;;22.29;40.54;101153.41;4975150;28;45291;-57
2023/06/07 08:29:59;;;;;;;;;21.00;18.00;;;;;22.34;40.78;101157.56;4978793;28;45457;-57
2023/06/07 08:32:25;;;;;;;;;26.75;20.50;;;;;22.41;40.61;101163.47;4960625;28;45450;-57
2023/06/07 08:34:50;;;;;;;;;21.25;20.75;;;;;22.47;40.82;101163.09;4960319;28;46475;-57
2023/06/07 08:37:15;;;;;;;;;22.50;18.50;;;;;22.52;40.97;101154.81;4963202;28;45403;-57
2023/06/07 08:39:41;;;;;;;;;19.75;19.75;;;;;22.57;40.62;101155.41;4978855;28;45307;-57
2023/06/07 08:42:06;;;;;;;;;20.75;17.50;;;;;22.63;40.50;101159.53;4963829;28;45386;-57
2023/06/07 08:44:32;;;;;;;;;24.25;23.00;;;;;22.68;40.84;101155.66;4963637;28;47242;-57
2023/06/07 08:46:59;;;;;;;;;20.25;20.25;;;;;22.72;40.91;101154.50;4978706;28;45326;-57
2023/06/07 08:49:26;;;;;;;;;23.00;21.00;;;;;22.76;40.70;101155.19;4963766;28;45329;-58
2023/06/07 08:51:53;;;;;;;;;22.25;19.50;;;;;22.83;40.58;101155.69;4962515;28;45528;-57
2023/06/07 08:54:22;;;;;;;;;21.25;18.75;;;;;22.86;40.53;101151.00;4963226;28;45445;-57
2023/06/07 08:56:48;;;;;;;;;20.50;19.25;;;;;22.90;40.89;101165.09;4963415;28;45425;-57
2023/06/07 08:59:14;;;;;;;;;22.50;22.25;;;;;22.97;40.32;101157.56;4963480;28;45315;-58
2023/06/07 09:01:41;;;;;;;;;22.50;22.50;;;;;22.99;40.62;101139.56;4963735;28;45295;-57
2023/06/07 09:04:07;;;;;;;;;22.25;22.25;;;;;23.05;40.48;101149.91;4962072;28;45277;-57
2023/06/07 09:06:34;;;;;;;;;23.00;20.00;;;;;23.09;40.84;101143.41;4963647;28;45219;-57
2023/06/07 09:09:00;;;;;;;;;21.25;19.00;;;;;23.15;40.27;101137.69;4963310;28;45316;-57
2023/06/07 09:11:26;;;;;;;;;23.50;22.00;;;;;23.20;40.40;101142.78;4963367;28;45164;-57
2023/06/07 09:13:55;;;;;;;;;23.00;22.25;;;;;23.25;40.63;101140.69;4963169;28;46143;-57
2023/06/07 09:16:20;;;;;;;;;21.50;19.00;;;;;23.31;40.52;101142.13;4962991;28;45279;-57
2023/06/07 09:18:53;;;;;;;;;22.75;19.75;;;;;23.35;40.38;101141.84;4980880;28;45260;-58
2023/06/07 09:21:27;;;;;;;;;20.75;20.50;;;;;23.32;40.61;101125.94;4972991;28;45334;-57
2023/06/07 09:23:58;;;;;;;;;23.50;22.50;;;;;23.47;40.31;101140.22;4962714;28;45544;-58
2023/06/07 09:26:35;;;;;;;;;25.00;22.50;;;;;23.54;40.44;101141.53;4962839;28;45230;-57
2023/06/07 09:29:06;;;;;;;;;20.00;16.75;;;;;23.53;40.22;101131.81;4967646;28;45505;-57
2023/06/07 09:31:34;;;;;;;;;20.00;17.50;;;;;23.67;40.23;101144.34;4975003;28;45577;-57
2023/06/07 09:34:28;;;;;;;;;19.75;18.50;;;;;23.75;40.40;101140.28;4963104;28;46209;-57
2023/06/07 09:36:58;;;;;;;;;21.25;18.75;;;;;23.78;40.01;101135.59;4945261;28;45320;-58
2023/06/07 09:39:26;;;;;;;;;19.25;18.00;;;;;23.86;40.43;101137.78;4963022;28;45318;-57
2023/06/07 09:41:56;;;;;;;;;22.50;17.00;;;;;23.93;40.10;101128.41;4977595;28;45469;-57
2023/06/07 09:44:27;;;;;;;;;23.75;21.50;;;;;24.01;40.46;101136.84;4962817;28;46017;-57
2023/06/07 09:46:53;;;;;;;;;23.75;21.50;;;;;24.10;40.05;101131.81;4962034;28;45168;-57
2023/06/07 09:49:31;;;;;;;;;20.00;16.75;;;;;24.17;40.02;101128.63;4962336;28;45277;-57
2023/06/07 09:51:57;;;;;;;;;23.25;21.00;;;;;24.24;39.94;101126.41;4977511;28;45341;-57
2023/06/07 09:54:40;;;;;;;;;18.75;18.50;;;;;24.33;39.79;101120.44;4962546;28;45314;-57
2023/06/07 09:57:11;;;;;;;;;21.25;20.75;;;;;24.42;39.82;101118.09;4962552;28;45395;-57
2023/06/07 09:59:38;;;;;;;;;17.00;17.00;;;;;24.48;39.48;101113.19;4962681;28;45326;-57
2023/06/07 10:02:27;;;;;;;;;20.25;18.75;;;;;24.59;39.63;101111.59;4962590;28;45422;-57
2023/06/07 10:04:55;;;;;;;;;21.00;18.00;;;;;24.65;39.76;101106.72;4962554;28;46022;-57
2023/06/07 10:07:23;;;;;;;;;19.25;19.25;;;;;24.75;39.76;101111.44;4962121;28;45193;-58
2023/06/07 10:09:53;;;;;;;;;16.00;14.50;;;;;24.85;39.57;101112.53;4961543;28;45244;-57
2023/06/07 10:12:26;;;;;;;;;20.00;20.00;;;;;24.98;39.25;101105.34;4960891;28;45469;-58
2023/06/07 10:14:54;;;;;;;;;21.50;20.25;;;;;25.09;39.16;101106.44;4962340;28;45320;-58
2023/06/07 10:17:25;;;;;;;;;19.75;18.25;;;;;25.20;39.48;101106.53;4961904;28;45344;-57
2023/06/07 10:19:58;;;;;;;;;17.25;17.25;;;;;25.28;39.26;101100.59;4973967;28;45236;-57
2023/06/07 10:22:28;;;;;;;;;18.00;18.00;;;;;25.42;39.25;101092.47;4963083;28;45243;-57
2023/06/07 10:25:10;;;;;;;;;19.25;18.25;;;;;25.55;39.22;101096.97;4961868;28;45439;-57
2023/06/07 10:28:13;;;;;;;;;16.50;16.00;;;;;25.72;38.50;101098.41;4977100;28;45391;-57
2023/06/07 10:30:46;;;;;;;;;22.00;19.75;;;;;25.87;39.12;101097.28;4980291;28;45184;-58
2023/06/07 10:33:13;;;;;;;;;16.25;16.25;;;;;26.05;39.05;101094.22;4962003;28;45328;-57
2023/06/07 10:35:41;;;;;;;;;17.25;17.25;;;;;26.30;39.11;101095.13;4961838;28;46045;-58
2023/06/07 10:38:07;;;;;;;;;19.00;18.00;;;;;26.59;38.78;101085.69;4961540;28;45492;-57
2023/06/07 10:40:34;;;;;;;;;19.25;19.25;;;;;26.95;38.93;101084.81;4976990;28;45401;-57
2023/06/07 10:43:00;;;;;;;;;17.25;17.25;;;;;27.36;39.58;101078.84;4961779;28;45356;-57
2023/06/07 10:45:25;;;;;;;;;20.00;17.75;;;;;27.83;39.33;101083.22;4961717;28;45282;-58
2023/06/07 10:47:51;;;;;;;;;20.25;19.25;;;;;28.32;38.91;101079.16;4975768;28;45289;-58
2023/06/07 10:50:26;;;;;;;;;17.25;17.25;;;;;28.82;38.84;101061.50;4980415;28;45404;-58
2023/06/07 10:52:59;;;;;;;;;19.75;17.75;;;;;29.44;38.93;101073.19;4979230;28;45481;-58
2023/06/07 10:55:31;;;;;;;;;17.50;17.25;;;;;30.03;38.97;101076.06;4960254;28;45423;-57
2023/06/07 10:57:58;;;;;;;;;18.75;16.00;;;;;30.60;38.62;101073.53;4976349;28;45367;-58
2023/06/07 11:00:29;;;;;;;;;19.00;16.50;;;;;31.20;37.93;101074.25;4960121;28;45370;-57
2023/06/07 11:03:04;;;;;;;;;17.50;15.75;;;;;31.81;37.90;101072.81;4961419;28;45535;-57
2023/06/07 11:05:52;;;;;;;;;16.50;16.00;;;;;32.41;37.37;101065.91;4976379;28;47019;-57
2023/06/07 11:08:26;;;;;;;;;17.00;16.25;;;;;32.98;37.17;101065.50;4961386;28;45270;-58
2023/06/07 11:10:58;;;;;;;;;19.25;18.25;;;;;33.48;37.12;101063.03;4961560;28;45479;-58